createdAt,value
2023-02-17T00:02:32.060Z,8.55
2023-02-17T00:07:35.256Z,8.49
2023-02-17T00:12:39.368Z,8.51
2023-02-17T00:17:42.131Z,8.53
2023-02-17T00:22:44.860Z,8.52
2023-02-17T00:27:48.901Z,8.52
2023-02-17T00:32:51.600Z,8.49
2023-02-17T00:37:55.575Z,8.51
2023-02-17T00:42:59.586Z,8.55
2023-02-17T00:48:02.294Z,8.61
2023-02-17T00:53:05.030Z,8.60
2023-02-17T00:58:10.406Z,8.61
2023-02-17T01:03:13.098Z,8.57
2023-02-17T01:08:17.260Z,8.62
2023-02-17T01:13:21.808Z,8.60
2023-02-17T01:18:25.571Z,8.69
2023-02-17T01:23:28.242Z,8.76
2023-02-17T01:28:32.501Z,8.74
2023-02-17T01:33:35.210Z,8.70
2023-02-17T01:38:38.538Z,8.75
2023-02-17T01:43:42.702Z,8.78
2023-02-17T01:48:48.370Z,8.75
2023-02-17T01:53:55.711Z,8.77
2023-02-17T01:59:04.764Z,8.83
2023-02-17T02:04:07.986Z,8.83
2023-02-17T02:09:13.878Z,8.88
2023-02-17T02:14:18.984Z,8.85
2023-02-17T02:19:50.002Z,8.91
2023-02-17T02:25:00.760Z,8.81
2023-02-17T02:30:18.537Z,8.77
2023-02-17T02:35:29.154Z,8.74
2023-02-17T02:40:35.525Z,8.73
2023-02-17T02:45:38.338Z,8.69
2023-02-17T02:50:55.173Z,8.63
2023-02-17T02:56:05.760Z,8.70
2023-02-17T03:01:14.129Z,8.67
2023-02-17T03:06:22.530Z,8.67
2023-02-17T03:11:33.182Z,8.64
2023-02-17T03:16:41.608Z,8.64
2023-02-17T03:21:49.798Z,8.67
2023-02-17T03:26:52.905Z,8.66
2023-02-17T03:31:55.778Z,8.67
2023-02-17T03:36:59.922Z,8.74
2023-02-17T03:42:02.944Z,8.72
2023-02-17T03:47:05.687Z,8.71
2023-02-17T03:52:09.750Z,8.79
2023-02-17T03:57:12.441Z,8.78
2023-02-17T04:02:15.184Z,8.83
2023-02-17T04:07:19.219Z,8.85
2023-02-17T04:12:23.005Z,8.85
2023-02-17T04:17:25.702Z,8.89
2023-02-17T04:22:29.702Z,8.88
2023-02-17T04:27:32.383Z,8.90
2023-02-17T04:32:35.067Z,8.88
2023-02-17T04:37:39.082Z,8.92
2023-02-17T04:42:41.736Z,8.97
2023-02-17T04:47:44.411Z,8.95
2023-02-17T04:52:48.485Z,9.08
2023-02-17T04:57:51.181Z,9.16
2023-02-17T05:02:54.021Z,9.16
2023-02-17T05:07:58.111Z,9.15
2023-02-17T05:13:00.804Z,9.11
2023-02-17T05:18:03.506Z,9.20
2023-02-17T05:23:07.562Z,9.20
2023-02-17T05:28:10.258Z,9.27
2023-02-17T05:33:12.952Z,9.30
2023-02-17T05:38:17.420Z,9.27
2023-02-17T05:43:20.144Z,9.36
2023-02-17T05:48:22.930Z,9.38
2023-02-17T05:53:27.017Z,9.41
2023-02-17T05:58:29.965Z,9.52
2023-02-17T06:03:32.733Z,9.43
2023-02-17T06:08:37.199Z,9.50
2023-02-17T06:13:40.156Z,9.58
2023-02-17T06:18:43.929Z,9.45
2023-02-17T06:23:48.242Z,9.54
2023-02-17T06:28:51.211Z,9.48
2023-02-17T06:33:53.910Z,9.62
2023-02-17T06:38:57.993Z,9.50
2023-02-17T06:44:01.116Z,9.59
2023-02-17T06:49:03.881Z,9.53
2023-02-17T06:54:08.206Z,9.57
2023-02-17T06:59:10.922Z,9.57
2023-02-17T07:04:13.665Z,9.65
2023-02-17T07:09:17.799Z,9.56
2023-02-17T07:14:20.506Z,9.64
2023-02-17T07:19:23.255Z,9.76
2023-02-17T07:24:27.800Z,9.77
2023-02-17T07:29:30.585Z,9.82
2023-02-17T07:34:33.320Z,9.78
2023-02-17T07:39:37.442Z,9.83
2023-02-17T07:44:40.200Z,9.80
2023-02-17T07:49:43.076Z,9.82
2023-02-17T07:54:47.157Z,9.78
2023-02-17T07:59:50.948Z,9.76
2023-02-17T08:04:53.724Z,9.68
2023-02-17T08:10:17.698Z,9.66
2023-02-17T08:15:20.524Z,9.65
2023-02-17T08:20:23.219Z,9.72
2023-02-17T08:25:27.343Z,9.82
2023-02-17T08:30:30.439Z,9.84
2023-02-17T08:35:33.748Z,9.87
2023-02-17T08:40:37.825Z,9.87
2023-02-17T08:45:40.512Z,9.92
2023-02-17T08:50:43.166Z,9.96
2023-02-17T08:55:49.471Z,10.01
2023-02-17T09:00:52.594Z,10.02
2023-02-17T09:05:55.653Z,10.06
2023-02-17T09:11:00.308Z,10.18
2023-02-17T09:16:03.453Z,10.22
2023-02-17T09:21:07.885Z,10.22
2023-02-17T09:26:14.450Z,10.31
2023-02-17T09:31:19.444Z,10.31
2023-02-17T09:36:24.669Z,10.35
2023-02-17T09:41:32.891Z,10.45
2023-02-17T09:46:38.539Z,10.44
2023-02-17T09:51:45.109Z,10.55
2023-02-17T09:56:51.925Z,10.58
2023-02-17T10:01:55.620Z,10.70
2023-02-17T10:07:02.883Z,10.76
2023-02-17T10:12:09.787Z,10.87
2023-02-17T10:17:19.294Z,10.92
2023-02-17T10:22:23.635Z,11.00
2023-02-17T10:27:43.054Z,10.99
2023-02-17T10:32:52.419Z,11.09
2023-02-17T10:38:00.436Z,11.15
2023-02-17T10:43:07.856Z,11.32
2023-02-17T10:48:15.183Z,11.42
2023-02-17T10:53:20.078Z,11.42
2023-02-17T10:58:28.976Z,11.46
2023-02-17T11:03:32.978Z,11.54
2023-02-17T11:08:38.796Z,11.58
2023-02-17T11:13:45.672Z,11.68
2023-02-17T11:18:49.620Z,11.79
2023-02-17T11:23:55.952Z,11.91
2023-02-17T11:29:10.429Z,12.10
2023-02-17T11:34:15.140Z,12.20
2023-02-17T11:39:22.317Z,12.31
2023-02-17T11:44:28.015Z,12.35
2023-02-17T11:49:50.010Z,12.38
2023-02-17T11:55:05.331Z,12.50
2023-02-17T12:00:17.019Z,12.52
2023-02-17T12:05:25.014Z,12.66
2023-02-17T12:10:35.422Z,12.73
2023-02-17T12:15:50.155Z,12.84
2023-02-17T12:20:59.201Z,12.94
2023-02-17T12:26:07.871Z,12.77
2023-02-17T12:31:22.173Z,12.69
2023-02-17T12:36:30.443Z,12.58
2023-02-17T12:41:35.928Z,12.55
2023-02-17T12:46:43.999Z,12.61
2023-02-17T12:51:49.350Z,12.61
2023-02-17T12:57:07.640Z,12.58
2023-02-17T13:02:14.410Z,12.57
2023-02-17T13:07:27.433Z,12.52
2023-02-17T13:12:40.751Z,12.43
2023-02-17T13:17:54.386Z,12.34
2023-02-17T13:23:09.326Z,12.34
2023-02-17T13:28:34.310Z,12.29
2023-02-17T13:33:44.593Z,12.28
2023-02-17T13:39:01.427Z,12.23
2023-02-17T13:44:25.055Z,12.21
2023-02-17T13:49:32.943Z,12.13
2023-02-17T13:54:35.686Z,12.15
2023-02-17T13:59:38.357Z,12.11
2023-02-17T14:04:44.501Z,11.96
2023-02-17T14:09:54.326Z,11.66
2023-02-17T14:14:57.015Z,11.43
2023-02-17T14:20:01.534Z,11.32
2023-02-17T14:25:06.741Z,11.23
2023-02-17T14:30:14.721Z,11.19
2023-02-17T14:35:23.662Z,11.16
2023-02-17T14:40:26.487Z,11.10
2023-02-17T14:45:29.178Z,11.07
2023-02-17T14:50:34.495Z,11.00
2023-02-17T14:55:39.312Z,10.88
2023-02-17T15:00:42.021Z,10.81
2023-02-17T15:05:46.448Z,10.88
2023-02-17T15:10:50.051Z,10.86
2023-02-17T15:15:52.994Z,10.85
2023-02-17T15:20:58.025Z,10.83
2023-02-17T15:26:00.886Z,10.78
2023-02-17T15:31:04.314Z,10.81
2023-02-17T15:36:13.579Z,10.86
2023-02-17T15:41:19.414Z,10.88
2023-02-17T15:46:24.055Z,10.88
2023-02-17T15:51:28.209Z,10.94
2023-02-17T15:56:32.980Z,10.99
2023-02-17T16:01:36.135Z,10.92
2023-02-17T16:06:40.224Z,10.91
2023-02-17T16:11:47.995Z,10.89
2023-02-17T16:16:50.792Z,10.97
2023-02-17T16:21:54.886Z,10.91
2023-02-17T16:26:57.736Z,10.87
2023-02-17T16:32:00.605Z,10.96
2023-02-17T16:37:12.433Z,10.91
2023-02-17T16:42:15.828Z,10.87
2023-02-17T16:47:20.687Z,10.88
2023-02-17T16:52:26.779Z,10.88
2023-02-17T16:57:29.558Z,10.82
2023-02-17T17:02:32.351Z,10.87
2023-02-17T17:07:36.446Z,10.80
2023-02-17T17:12:39.182Z,10.83
2023-02-17T17:17:44.982Z,10.76
2023-02-17T17:22:50.082Z,10.85
2023-02-17T17:27:53.022Z,10.81
2023-02-17T17:32:55.935Z,10.82
2023-02-17T17:37:59.977Z,10.80
2023-02-17T17:43:02.677Z,10.80
2023-02-17T17:48:05.761Z,10.81
2023-02-17T17:53:10.317Z,10.79
2023-02-17T17:58:13.826Z,10.68
2023-02-17T18:03:16.638Z,10.64
2023-02-17T18:08:20.826Z,10.63
2023-02-17T18:13:23.782Z,10.67
2023-02-17T18:18:28.500Z,10.71
2023-02-17T18:23:32.706Z,10.65
2023-02-17T18:28:35.567Z,10.73
2023-02-17T18:33:38.396Z,10.70
2023-02-17T18:38:43.214Z,10.84
2023-02-17T18:43:45.948Z,10.79
2023-02-17T18:48:48.683Z,10.83
2023-02-17T18:53:52.975Z,10.78
2023-02-17T18:58:56.376Z,10.74
2023-02-17T19:03:59.567Z,10.66
2023-02-17T19:09:04.639Z,10.58
2023-02-17T19:14:07.289Z,10.55
2023-02-17T19:19:09.958Z,10.63
2023-02-17T19:24:14.498Z,10.60
2023-02-17T19:29:17.250Z,10.55
2023-02-17T19:34:20.222Z,10.44
2023-02-17T19:39:24.364Z,10.37
2023-02-17T19:44:27.120Z,10.24
2023-02-17T19:49:29.870Z,10.10
2023-02-17T19:54:33.898Z,10.05
2023-02-17T19:59:36.607Z,9.92
2023-02-17T20:04:39.305Z,9.92
2023-02-17T20:09:43.442Z,9.88
2023-02-17T20:14:46.551Z,9.82
2023-02-17T20:19:49.225Z,9.40
2023-02-17T20:24:53.281Z,9.29
2023-02-17T20:29:56.042Z,9.23
2023-02-17T20:34:58.901Z,9.17
2023-02-17T20:40:04.171Z,9.21
2023-02-17T20:45:07.312Z,9.23
2023-02-17T20:50:12.713Z,9.18
2023-02-17T20:55:19.734Z,9.22
2023-02-17T21:00:24.449Z,9.18
2023-02-17T21:05:27.307Z,9.13
2023-02-17T21:10:32.744Z,9.11
2023-02-17T21:15:35.760Z,9.11
2023-02-17T21:20:38.470Z,9.08
2023-02-17T21:25:45.787Z,9.11
2023-02-17T21:30:48.656Z,9.10
2023-02-17T21:35:53.421Z,9.10
2023-02-17T21:41:06.731Z,9.10
2023-02-17T21:46:10.578Z,9.19
2023-02-17T21:51:13.369Z,9.17
2023-02-17T21:56:17.893Z,9.16
2023-02-17T22:01:21.212Z,9.16
2023-02-17T22:06:26.020Z,9.19
2023-02-17T22:11:31.921Z,9.17
2023-02-17T22:16:35.901Z,9.12
2023-02-17T22:21:39.564Z,9.05
2023-02-17T22:26:43.973Z,9.06
2023-02-17T22:31:50.123Z,9.07
2023-02-17T22:36:52.784Z,9.16
2023-02-17T22:41:56.866Z,9.16
2023-02-17T22:46:59.562Z,9.10
2023-02-17T22:52:02.310Z,9.06
2023-02-17T22:57:06.935Z,8.94
2023-02-17T23:02:09.587Z,8.94
2023-02-17T23:07:12.605Z,8.85
2023-02-17T23:12:16.652Z,8.82
2023-02-17T23:17:19.355Z,8.83
2023-02-17T23:22:22.060Z,8.88
2023-02-17T23:27:26.129Z,8.81
2023-02-17T23:32:28.914Z,8.83
2023-02-17T23:37:31.633Z,8.81
2023-02-17T23:42:36.905Z,8.79
2023-02-17T23:47:39.963Z,8.81
2023-02-17T23:52:42.728Z,8.80
2023-02-17T23:57:46.806Z,8.74
